• Join FlightAware (Why Join?)
  • Login
  • US Flag 
11:32AM EDT


 

Airport Tracker/Info


-or-


 

Live Flight TrackerFlight Track Log ✈ CTL15 ✈ 15-Apr-2013 ✈ KMGY - KBKL

Flight Track Log - Related Links

Times and Time Zones

All times are in EDT time to prevent confusion due to time zone crossing. See the CTL15 flight status page for this flight to view local times or setup timezone preferences in your user account.

Time Position Orientation Groundspeed Altitude Reporting Facility
EDT Latitude Longitude Course Direction KTS MPH feet Rate Location/Type
07:48PM 39.5903 -84.1925 43° Northeast 148 170 2,400  Level Indianapolis Center
07:50PM 39.6344 -84.1389 43° Northeast 152 175 3,700 840 Climbing Indianapolis Center
07:51PM 39.6622 -84.1033 45° Northeast 153 176 4,400 780 Climbing Indianapolis Center
07:52PM 39.6950 -84.0600 45° Northeast 158 182 5,300 720 Climbing Indianapolis Center
07:53PM 39.7264 -84.0239 41° Northeast 157 181 5,900 660 Climbing Indianapolis Center
07:54PM 39.7594 -83.9842 43° Northeast 162 186 6,600 600 Climbing Indianapolis Center
07:54PM 39.7872 -83.9525 41° Northeast 160 184 7,000 360 Climbing Indianapolis Center
07:55PM 39.7922 -83.9439 53° Northeast 160 184 7,000  Level Indianapolis Center
07:55PM 39.8219 -83.9081 43° Northeast 177 204 7,000  Level Indianapolis Center
07:56PM 39.8281 -83.9003 44° Northeast 167 192 7,000  Level Indianapolis Center
07:57PM 39.8681 -83.8542 41° Northeast 182 209 7,000  Level Indianapolis Center
07:58PM 39.9036 -83.8111 43° Northeast 179 206 7,000  Level Indianapolis Center
07:59PM 39.9372 -83.7678 45° Northeast 182 209 7,000  Level Indianapolis Center
07:59PM 39.9403 -83.7644 40° Northeast 180 207 7,000 60 Level Indianapolis Center
08:00PM 39.9767 -83.7183 44° Northeast 185 213 7,100  Climbing Indianapolis Center
08:01PM 40.0136 -83.6711 44° Northeast 185 213 7,000 -60 Descending Indianapolis Center
08:02PM 40.0553 -83.6192 44° Northeast 183 211 7,000 -60 Level Indianapolis Center
08:03PM 40.0969 -83.5686 43° Northeast 184 212 6,900 -180 Descending Indianapolis Center
08:04PM 40.1239 -83.5378 41° Northeast 187 215 6,700 60 Descending Indianapolis Center
08:04PM 40.1297 -83.5300 46° Northeast 186 214 7,000 360 Climbing Indianapolis Center
08:05PM 40.1633 -83.4853 45° Northeast 187 215 7,100 60 Climbing Indianapolis Center
08:05PM 40.1725 -83.4739 44° Northeast 185 213 7,100  Level Indianapolis Center
08:06PM 40.2003 -83.4378 45° Northeast 186 214 7,100  Level Indianapolis Center
08:06PM 40.2097 -83.4239 48° Northeast 188 216 7,100  Level Indianapolis Center
08:07PM 40.2350 -83.3903 45° Northeast 186 214 7,100 -120 Level Indianapolis Center
08:07PM 40.2461 -83.3756 45° Northeast 187 215 7,000  Descending Indianapolis Center
08:08PM 40.2694 -83.3478 42° Northeast 182 209 7,100 -120 Climbing Indianapolis Center
08:08PM 40.2847 -83.3286 44° Northeast 187 215 6,900  Descending Indianapolis Center
08:09PM 40.3197 -83.2883 41° Northeast 181 208 7,100  Climbing Indianapolis Center
08:10PM 40.3597 -83.2383 44° Northeast 186 214 7,000 -60 Descending Indianapolis Center
08:11PM 40.3986 -83.1919 42° Northeast 186 214 7,000  Level Indianapolis Center
08:12PM 40.4419 -83.1358 45° Northeast 186 214 7,000  Level Indianapolis Center
08:13PM 40.4764 -83.0975 40° Northeast 187 215 7,100  Climbing Indianapolis Center
08:14PM 40.5197 -83.0433 44° Northeast 187 215 7,000  Descending Indianapolis Center
08:15PM 40.5569 -82.9947 45° Northeast 188 216 7,100  Climbing Indianapolis Center
08:16PM 40.5942 -82.9461 45° Northeast 187 215 7,100  Level Indianapolis Center
08:17PM 40.6325 -82.8969 44° Northeast 191 220 7,100 -60 Level Indianapolis Center
08:18PM 40.6706 -82.8467 45° Northeast 192 221 7,000  Descending Indianapolis Center
08:19PM 40.7075 -82.7958 46° Northeast 192 221 7,100  Climbing Indianapolis Center
08:20PM 40.7458 -82.7475 44° Northeast 190 219 7,000 -300 Descending Indianapolis Center
08:21PM 40.7858 -82.6958 44° Northeast 194 223 6,600 -420 Descending Indianapolis Center